KDAB

Daytona Beach International Airport

Airport
ICAO code
KDAB
Summary
ICAO Region
NAM
ICAO Territory
Location

Daytona Beach, Florida,

Elevation
34 ft
Coordinates
29° 10' 46" N , 81° 3' 22" W
KCC
Cfa
Airport LOS
Parallel Runway Operation
Metar
Observation
KDAB 171353Z 25006KT 10SM BKN021CB BKN250 31/26 A2996 RMK AO2 SLP143 CB OHD MOV E T03060256
Station
Daytona Beach, Daytona Beach Regional Airport
Date/Time
2022-08-17 13:53:00
Wind direction
250°
Wind speed
06 kts
Lowest cloud amount
broken clouds
Temperature
30.6°C
Dew point
25.6°C
Humidity
74%
Weather condition
n/a

Description

Daytona Beach International Airport is a public county-owned airport located 5 km southwest of the central business district of Daytona Beach, in Volusia County, Florida.

Climatology

Humid “subtropical” climate (Köppen climate classification Cfa) - characterized by hot, humid summers and cool winters. Significant amounts of precipitation occur in all seasons in most areas.

Airport map

Aerial View

SKYbrary Partners:

Safety knowledge contributed by: